sensor_id;sensor_type;location;lat;lon;timestamp;P1;P4;P2;P0;N10;N4;N25;N1;N05;TS
64091;SPS30;50348;51.992;8.380;2023-01-29T00:01:39;43.4;;43.4;38.5;;;;;;
64091;SPS30;50348;51.992;8.380;2023-01-29T00:04:40;42.2;;42.7;41.3;;;;;;
64091;SPS30;50348;51.992;8.380;2023-01-29T00:09:37;43;;43.1;39.9;;;;;;
64091;SPS30;50348;51.992;8.380;2023-01-29T00:12:36;41.8;;42.1;40.8;;;;;;
64091;SPS30;50348;51.992;8.380;2023-01-29T00:14:53;41.4;;41.4;39.6;;;;;;
64091;SPS30;50348;51.992;8.380;2023-01-29T00:17:30;42.9;;42.9;39.4;;;;;;
64091;SPS30;50348;51.992;8.380;2023-01-29T00:20:28;38.3;;38.5;40.9;;;;;;
64091;SPS30;50348;51.992;8.380;2023-01-29T00:25:18;41.5;;41.7;36.3;;;;;;
64091;SPS30;50348;51.992;8.380;2023-01-29T00:28:14;40.2;;40.2;39.4;;;;;;
64091;SPS30;50348;51.992;8.380;2023-01-29T00:30:26;37.7;;38;38.3;;;;;;
64091;SPS30;50348;51.992;8.380;2023-01-29T00:33:00;41;;41.4;35.7;;;;;;
64091;SPS30;50348;51.992;8.380;2023-01-29T00:35:54;39.3;;39.3;38.7;;;;;;
64091;SPS30;50348;51.992;8.380;2023-01-29T00:43:29;39.1;;39.5;37.4;;;;;;
64091;SPS30;50348;51.992;8.380;2023-01-29T00:45:38;36.9;;39.3;37.1;;;;;;
64091;SPS30;50348;51.992;8.380;2023-01-29T00:50:19;39.2;;37.2;34.9;;;;;;
64091;SPS30;50348;51.992;8.380;2023-01-29T00:53:11;40.5;;39.3;37.3;;;;;;
64091;SPS30;50348;51.992;8.380;2023-01-29T00:55:19;39.9;;40.6;38.6;;;;;;
64091;SPS30;50348;51.992;8.380;2023-01-29T01:00:38;37.2;;40;38;;;;;;
64091;SPS30;50348;51.992;8.380;2023-01-29T01:03:28;37.1;;37.8;35;;;;;;
64091;SPS30;50348;51.992;8.380;2023-01-29T01:05:34;38.8;;37.2;35.3;;;;;;
64091;SPS30;50348;51.992;8.380;2023-01-29T01:08:02;38.6;;39.3;36.5;;;;;;
64091;SPS30;50348;51.992;8.380;2023-01-29T01:10:57;35.9;;36.2;34;;;;;;
64091;SPS30;50348;51.992;8.380;2023-01-29T01:15:21;36.1;;36.3;34.2;;;;;;
64091;SPS30;50348;51.992;8.380;2023-01-29T01:17:46;37.6;;37.7;35.8;;;;;;
64091;SPS30;50348;51.992;8.380;2023-01-29T01:20:33;37;;37.4;35;;;;;;
64091;SPS30;50348;51.992;8.380;2023-01-29T01:24:59;36.6;;37;34.6;;;;;;
64091;SPS30;50348;51.992;8.380;2023-01-29T01:27:44;37.5;;38;35.5;;;;;;
64091;SPS30;50348;51.992;8.380;2023-01-29T01:29:46;36.2;;36.3;34.5;;;;;;
64091;SPS30;50348;51.992;8.380;2023-01-29T01:34:50;34.8;;35;33;;;;;;
64091;SPS30;50348;51.992;8.380;2023-01-29T01:37:53;37.2;;37.9;34.9;;;;;;
64091;SPS30;50348;51.992;8.380;2023-01-29T01:40:13;37.5;;37.7;35.6;;;;;;
64091;SPS30;50348;51.992;8.380;2023-01-29T01:42:54;36.3;;36.8;34.3;;;;;;
64091;SPS30;50348;51.992;8.380;2023-01-29T01:45:55;37.5;;37.7;35.6;;;;;;
64091;SPS30;50348;51.992;8.380;2023-01-29T01:50:54;35.4;;35.8;33.5;;;;;;
64091;SPS30;50348;51.992;8.380;2023-01-29T01:53:53;38.1;;39.4;35.3;;;;;;
64091;SPS30;50348;51.992;8.380;2023-01-29T01:56:10;37.2;;37.7;35.1;;;;;;
64091;SPS30;50348;51.992;8.380;2023-01-29T01:58:47;35.9;;36.2;34;;;;;;
64091;SPS30;50348;51.992;8.380;2023-01-29T02:01:46;37.2;;37.7;35.1;;;;;;
64091;SPS30;50348;51.992;8.380;2023-01-29T02:06:35;36.8;;37.5;34.5;;;;;;
64091;SPS30;50348;51.992;8.380;2023-01-29T02:09:12;37.4;;38.4;35;;;;;;
64091;SPS30;50348;51.992;8.380;2023-01-29T02:12:07;37.1;;37.4;35.2;;;;;;
64091;SPS30;50348;51.992;8.380;2023-01-29T02:14:19;38.5;;38.9;36.3;;;;;;
64091;SPS30;50348;51.992;8.380;2023-01-29T02:19:49;37.5;;38.3;35.1;;;;;;
64091;SPS30;50348;51.992;8.380;2023-01-29T02:22:05;37.7;;38.5;35.3;;;;;;
64091;SPS30;50348;51.992;8.380;2023-01-29T02:27:23;39.5;;40.5;36.8;;;;;;
64091;SPS30;50348;51.992;8.380;2023-01-29T02:32:08;38.6;;39.2;36.3;;;;;;
64091;SPS30;50348;51.992;8.380;2023-01-29T02:34:57;39.3;;39.5;37.2;;;;;;
64091;SPS30;50348;51.992;8.380;2023-01-29T02:39:30;38.5;;38.7;36.5;;;;;;
64091;SPS30;50348;51.992;8.380;2023-01-29T02:41:59;39.2;;39.9;36.8;;;;;;
64091;SPS30;50348;51.992;8.380;2023-01-29T02:44:47;39.3;;39.7;37.1;;;;;;
64091;SPS30;50348;51.992;8.380;2023-01-29T02:46:54;37.6;;37.6;35.8;;;;;;
64091;SPS30;50348;51.992;8.380;2023-01-29T02:49:20;39.8;;40.4;37.5;;;;;;
64091;SPS30;50348;51.992;8.380;2023-01-29T02:54:12;39.5;;40.2;37;;;;;;
64091;SPS30;50348;51.992;8.380;2023-01-29T02:56:35;37.8;;38.9;35.2;;;;;;
64091;SPS30;50348;51.992;8.380;2023-01-29T03:03:44;38.3;;38.7;35.4;;;;;;
64091;SPS30;50348;51.992;8.380;2023-01-29T03:06:08;40.6;;39.2;35.8;;;;;;
64091;SPS30;50348;51.992;8.380;2023-01-29T03:08:51;38;;41.3;38.2;;;;;;
64091;SPS30;50348;51.992;8.380;2023-01-29T03:11:56;39.1;;38.6;35.8;;;;;;
64091;SPS30;50348;51.992;8.380;2023-01-29T03:16:58;39.7;;39.7;36.8;;;;;;
64091;SPS30;50348;51.992;8.380;2023-01-29T03:20:00;38.8;;40.3;37.5;;;;;;
64091;SPS30;50348;51.992;8.380;2023-01-29T03:22:19;42.1;;40;36;;;;;;
64091;SPS30;50348;51.992;8.380;2023-01-29T03:24:59;38.5;;43.7;38.9;;;;;;
64091;SPS30;50348;51.992;8.380;2023-01-29T03:28:00;39.6;;38.8;36.5;;;;;;
64091;SPS30;50348;51.992;8.380;2023-01-29T03:32:56;38.4;;40.8;36.9;;;;;;
64091;SPS30;50348;51.992;8.380;2023-01-29T03:35:55;40.3;;39;36.2;;;;;;
64091;SPS30;50348;51.992;8.380;2023-01-29T03:38:10;39.2;;41.6;37.5;;;;;;
64091;SPS30;50348;51.992;8.380;2023-01-29T03:40:48;39.3;;39.7;36.9;;;;;;
64091;SPS30;50348;51.992;8.380;2023-01-29T03:43:46;39.5;;40.2;37;;;;;;
64091;SPS30;50348;51.992;8.380;2023-01-29T03:48:34;38.8;;39.4;36.5;;;;;;
64091;SPS30;50348;51.992;8.380;2023-01-29T03:51:11;39;;40.1;36.4;;;;;;
64091;SPS30;50348;51.992;8.380;2023-01-29T03:54:05;38.9;;39.6;36.6;;;;;;
64091;SPS30;50348;51.992;8.380;2023-01-29T03:56:17;39.4;;39.8;37.3;;;;;;
64091;SPS30;50348;51.992;8.380;2023-01-29T04:03:52;38.7;;39.2;36.5;;;;;;
64091;SPS30;50348;51.992;8.380;2023-01-29T04:06:03;38.2;;38.9;35.9;;;;;;
64091;SPS30;50348;51.992;8.380;2023-01-29T04:11:24;39.6;;39.8;37.6;;;;;;
64091;SPS30;50348;51.992;8.380;2023-01-29T04:13:33;38.7;;39;36.7;;;;;;
64091;SPS30;50348;51.992;8.380;2023-01-29T04:16:03;37.9;;38;36.1;;;;;;
64091;SPS30;50348;51.992;8.380;2023-01-29T04:18:52;40.5;;41.8;37.5;;;;;;
64091;SPS30;50348;51.992;8.380;2023-01-29T04:23:26;38.1;;38.8;35.8;;;;;;
64091;SPS30;50348;51.992;8.380;2023-01-29T04:26:20;36.9;;37.3;34.8;;;;;;
64091;SPS30;50348;51.992;8.380;2023-01-29T04:28:19;37.7;;38.3;35.6;;;;;;
64091;SPS30;50348;51.992;8.380;2023-01-29T04:33:31;39.2;;40.2;36.6;;;;;;
64091;SPS30;50348;51.992;8.380;2023-01-29T04:35:35;40.6;;41.6;37.9;;;;;;
64091;SPS30;50348;51.992;8.380;2023-01-29T04:40:44;37.7;;38.6;35.3;;;;;;
64091;SPS30;50348;51.992;8.380;2023-01-29T04:48:16;38.2;;38.6;36;;;;;;
64091;SPS30;50348;51.992;8.380;2023-01-29T04:50:37;37.2;;38.4;34.5;;;;;;
64091;SPS30;50348;51.992;8.380;2023-01-29T04:53:21;39.3;;40.2;36.8;;;;;;
64091;SPS30;50348;51.992;8.380;2023-01-29T04:58:46;38.1;;39.3;35.5;;;;;;
64091;SPS30;50348;51.992;8.380;2023-01-29T05:01:27;37;;38.1;34.5;;;;;;
64091;SPS30;50348;51.992;8.380;2023-01-29T05:04:30;39.9;;41.4;36.9;;;;;;
64091;SPS30;50348;51.992;8.380;2023-01-29T05:06:49;38.2;;39.8;35.2;;;;;;
64091;SPS30;50348;51.992;8.380;2023-01-29T05:09:30;38.6;;40.4;35.3;;;;;;
64091;SPS30;50348;51.992;8.380;2023-01-29T05:12:31;37.5;;38.9;34.6;;;;;;
64091;SPS30;50348;51.992;8.380;2023-01-29T05:17:26;37.1;;38.3;34.5;;;;;;
64091;SPS30;50348;51.992;8.380;2023-01-29T05:20:25;37.4;;38.6;34.8;;;;;;
64091;SPS30;50348;51.992;8.380;2023-01-29T05:22:41;38.9;;40.4;35.9;;;;;;
64091;SPS30;50348;51.992;8.380;2023-01-29T05:25:19;36.8;;38.5;33.9;;;;;;
64091;SPS30;50348;51.992;8.380;2023-01-29T05:30:29;39.3;;40.7;36.5;;;;;;
64091;SPS30;50348;51.992;8.380;2023-01-29T05:33:04;37.7;;38.7;35.1;;;;;;
64091;SPS30;50348;51.992;8.380;2023-01-29T05:35:59;37.9;;39.2;35;;;;;;
64091;SPS30;50348;51.992;8.380;2023-01-29T05:38:11;36.9;;38.4;34.1;;;;;;
64091;SPS30;50348;51.992;8.380;2023-01-29T05:45:52;39.3;;40.6;36.5;;;;;;
64091;SPS30;50348;51.992;8.380;2023-01-29T05:48:19;37.7;;38.7;35.3;;;;;;
64091;SPS30;50348;51.992;8.380;2023-01-29T05:51:11;37.1;;38;34.7;;;;;;
64091;SPS30;50348;51.992;8.380;2023-01-29T05:55:49;40;;41.5;36.9;;;;;;
64091;SPS30;50348;51.992;8.380;2023-01-29T05:58:18;38.2;;39.6;35.3;;;;;;
64091;SPS30;50348;51.992;8.380;2023-01-29T06:02:06;39.5;;41.8;35.9;;;;;;
64091;SPS30;50348;51.992;8.380;2023-01-29T06:05:42;39.6;;41.2;36.4;;;;;;
64091;SPS30;50348;51.992;8.380;2023-01-29T06:08:30;38.8;;40;36.1;;;;;;
64091;SPS30;50348;51.992;8.380;2023-01-29T06:15:48;39.1;;40.8;35.9;;;;;;
64091;SPS30;50348;51.992;8.380;2023-01-29T06:17:51;39.7;;41.2;36.8;;;;;;
64091;SPS30;50348;51.992;8.380;2023-01-29T06:20:14;43.5;;46.3;39.4;;;;;;
64091;SPS30;50348;51.992;8.380;2023-01-29T06:23:03;38.4;;40.5;34.9;;;;;;
64091;SPS30;50348;51.992;8.380;2023-01-29T06:27:24;39.4;;40.4;36.7;;;;;;
64091;SPS30;50348;51.992;8.380;2023-01-29T06:30:05;38.7;;40.1;35.7;;;;;;
64091;SPS30;50348;51.992;8.380;2023-01-29T06:35:32;39.5;;40.9;35.3;;;;;;
64091;SPS30;50348;51.992;8.380;2023-01-29T06:43:36;37.7;;39.7;34.3;;;;;;
64091;SPS30;50348;51.992;8.380;2023-01-29T06:54:03;40.9;;42.4;37.7;;;;;;
64091;SPS30;50348;51.992;8.380;2023-01-29T06:57:00;39.9;;40.7;37.4;;;;;;
64091;SPS30;50348;51.992;8.380;2023-01-29T06:59:15;39.5;;41;36.5;;;;;;
64091;SPS30;50348;51.992;8.380;2023-01-29T07:01:50;41.3;;43.4;37.8;;;;;;
64091;SPS30;50348;51.992;8.380;2023-01-29T07:04:47;39.5;;40.9;36.5;;;;;;
64091;SPS30;50348;51.992;8.380;2023-01-29T07:09:33;42.3;;44.3;38.8;;;;;;
64091;SPS30;50348;51.992;8.380;2023-01-29T07:12:31;40.5;;42.2;37.2;;;;;;
64091;SPS30;50348;51.992;8.380;2023-01-29T07:14:39;42.1;;44.2;38.5;;;;;;
64091;SPS30;50348;51.992;8.380;2023-01-29T07:17:10;41.6;;43.5;38.1;;;;;;
64091;SPS30;50348;51.992;8.380;2023-01-29T07:20:04;41.8;;43.4;38.6;;;;;;
64091;SPS30;50348;51.992;8.380;2023-01-29T07:24:42;39.5;;41.1;36.5;;;;;;
64091;SPS30;50348;51.992;8.380;2023-01-29T07:27:33;41.7;;42.9;38.9;;;;;;
64091;SPS30;50348;51.992;8.380;2023-01-29T07:29:40;42.9;;45.2;39;;;;;;
64091;SPS30;50348;51.992;8.380;2023-01-29T07:34:58;43.9;;45.9;40.3;;;;;;
64091;SPS30;50348;51.992;8.380;2023-01-29T07:37:03;42.7;;43.9;39.7;;;;;;
64091;SPS30;50348;51.992;8.380;2023-01-29T07:39:30;42.6;;44.6;39.1;;;;;;
64091;SPS30;50348;51.992;8.380;2023-01-29T07:42:17;42.9;;45;39.3;;;;;;
64091;SPS30;50348;51.992;8.380;2023-01-29T07:46:45;42;;43.7;38.7;;;;;;
64091;SPS30;50348;51.992;8.380;2023-01-29T07:49:10;43.7;;45.5;40.4;;;;;;
64091;SPS30;50348;51.992;8.380;2023-01-29T07:51:55;44.2;;46.8;40.2;;;;;;
64091;SPS30;50348;51.992;8.380;2023-01-29T08:01:47;43;;45.2;39.9;;;;;;
64091;SPS30;50348;51.992;8.380;2023-01-29T08:04:51;44;;45.8;39.3;;;;;;
64091;SPS30;50348;51.992;8.380;2023-01-29T08:09:54;44.1;;46.6;40.5;;;;;;
64091;SPS30;50348;51.992;8.380;2023-01-29T08:12:57;43.8;;46.9;40.1;;;;;;
64091;SPS30;50348;51.992;8.380;2023-01-29T08:15:15;44.2;;46.1;39.3;;;;;;
64091;SPS30;50348;51.992;8.380;2023-01-29T08:17:56;44.4;;46.3;40.6;;;;;;
64091;SPS30;50348;51.992;8.380;2023-01-29T08:20:58;44.2;;46.9;40.9;;;;;;
64091;SPS30;50348;51.992;8.380;2023-01-29T08:25:52;43.4;;45.2;40.1;;;;;;
64091;SPS30;50348;51.992;8.380;2023-01-29T08:28:51;48.4;;51.6;40;;;;;;
64091;SPS30;50348;51.992;8.380;2023-01-29T08:31:51;46.9;;49.5;43.7;;;;;;
64091;SPS30;50348;51.992;8.380;2023-01-29T08:34:07;44.8;;46.5;42.7;;;;;;
64091;SPS30;50348;51.992;8.380;2023-01-29T08:36:45;44.5;;46.4;41.4;;;;;;
64091;SPS30;50348;51.992;8.380;2023-01-29T08:39:43;46.7;;48.8;40.9;;;;;;
64091;SPS30;50348;51.992;8.380;2023-01-29T08:44:33;43.5;;45.7;43;;;;;;
64091;SPS30;50348;51.992;8.380;2023-01-29T08:47:09;44.2;;46.4;39.9;;;;;;
64091;SPS30;50348;51.992;8.380;2023-01-29T08:50:06;45.9;;48.6;40.4;;;;;;
64091;SPS30;50348;51.992;8.380;2023-01-29T08:52:18;46.2;;49.4;41.7;;;;;;
64091;SPS30;50348;51.992;8.380;2023-01-29T08:57:46;46.1;;48.1;41.5;;;;;;
64091;SPS30;50348;51.992;8.380;2023-01-29T08:59:57;45.2;;47.4;42.4;;;;;;
64091;SPS30;50348;51.992;8.380;2023-01-29T09:02:29;43.7;;45.9;41.5;;;;;;
64091;SPS30;50348;51.992;8.380;2023-01-29T09:05:22;44.5;;48.3;39.9;;;;;;
64091;SPS30;50348;51.992;8.380;2023-01-29T09:10:02;44.4;;46.4;39.5;;;;;;
64091;SPS30;50348;51.992;8.380;2023-01-29T09:12:53;44.8;;47.2;40.7;;;;;;
64091;SPS30;50348;51.992;8.380;2023-01-29T09:15:00;43;;44.8;40.8;;;;;;
64091;SPS30;50348;51.992;8.380;2023-01-29T09:17:28;43.5;;46;39.5;;;;;;
64091;SPS30;50348;51.992;8.380;2023-01-29T09:22:23;42.8;;45.2;38.9;;;;;;
64091;SPS30;50348;51.992;8.380;2023-01-29T09:24:50;44;;46.7;39.9;;;;;;
64091;SPS30;50348;51.992;8.380;2023-01-29T09:27:37;44.6;;47.7;40.2;;;;;;
64091;SPS30;50348;51.992;8.380;2023-01-29T09:32:06;43.4;;46.1;39.4;;;;;;
64091;SPS30;50348;51.992;8.380;2023-01-29T09:34:30;42.9;;45.7;38.7;;;;;;
64091;SPS30;50348;51.992;8.380;2023-01-29T09:37:16;44;;46.6;39.9;;;;;;
64091;SPS30;50348;51.992;8.380;2023-01-29T09:41:43;41.7;;44.3;37.8;;;;;;
64091;SPS30;50348;51.992;8.380;2023-01-29T09:44:07;42;;44.8;38;;;;;;
64091;SPS30;50348;51.992;8.380;2023-01-29T09:46:47;43.8;;46.7;39.4;;;;;;
64091;SPS30;50348;51.992;8.380;2023-01-29T09:49:54;41.2;;44.1;37;;;;;;
64091;SPS30;50348;51.992;8.380;2023-01-29T09:54:56;41.3;;44.8;36.6;;;;;;
64091;SPS30;50348;51.992;8.380;2023-01-29T09:57:58;42.9;;46.7;37.9;;;;;;
64091;SPS30;50348;51.992;8.380;2023-01-29T10:00:17;42.6;;44.8;39;;;;;;
64091;SPS30;50348;51.992;8.380;2023-01-29T10:03:07;41.1;;44.4;36.7;;;;;;
64091;SPS30;50348;51.992;8.380;2023-01-29T10:06:02;43.5;;45.5;39.9;;;;;;
64091;SPS30;50348;51.992;8.380;2023-01-29T10:08:19;39.7;;42.5;35.7;;;;;;
64091;SPS30;50348;51.992;8.380;2023-01-29T10:13:55;41.6;;45.2;36.8;;;;;;
64091;SPS30;50348;51.992;8.380;2023-01-29T10:16:11;40.5;;43.2;36.5;;;;;;
64091;SPS30;50348;51.992;8.380;2023-01-29T10:18:46;41.6;;45.1;37;;;;;;
64091;SPS30;50348;51.992;8.380;2023-01-29T10:26:28;41.4;;43.6;37.8;;;;;;
64091;SPS30;50348;51.992;8.380;2023-01-29T10:29:04;41;;44.8;36.2;;;;;;
64091;SPS30;50348;51.992;8.380;2023-01-29T10:34:11;39.9;;43.9;34.9;;;;;;
64091;SPS30;50348;51.992;8.380;2023-01-29T10:41:47;37.1;;43.5;35.2;;;;;;
64091;SPS30;50348;51.992;8.380;2023-01-29T10:44:21;39.2;;38.7;34.2;;;;;;
64091;SPS30;50348;51.992;8.380;2023-01-29T10:51:51;39.5;;42;35.2;;;;;;
64091;SPS30;50348;51.992;8.380;2023-01-29T10:54:40;38.4;;41.4;36.2;;;;;;
64091;SPS30;50348;51.992;8.380;2023-01-29T10:56:46;37.7;;40.8;34.7;;;;;;
64091;SPS30;50348;51.992;8.380;2023-01-29T10:59:13;37.5;;40.7;33.7;;;;;;
64091;SPS30;50348;51.992;8.380;2023-01-29T11:04:04;39;;40.3;33.5;;;;;;
64091;SPS30;50348;51.992;8.380;2023-01-29T11:06:29;36.2;;41.7;35.1;;;;;;
64091;SPS30;50348;51.992;8.380;2023-01-29T11:09:17;37.4;;37.3;33.6;;;;;;
64091;SPS30;50348;51.992;8.380;2023-01-29T11:16:26;35.4;;40.2;33.5;;;;;;
64091;SPS30;50348;51.992;8.380;2023-01-29T11:18:27;36.2;;37.6;32;;;;;;
64091;SPS30;50348;51.992;8.380;2023-01-29T11:23:32;36.1;;37.7;33.4;;;;;;
64091;SPS30;50348;51.992;8.380;2023-01-29T11:26:36;36.5;;38.4;32.6;;;;;;
64091;SPS30;50348;51.992;8.380;2023-01-29T11:28:54;35.3;;38.9;32.9;;;;;;
64091;SPS30;50348;51.992;8.380;2023-01-29T11:31:36;34;;37.2;32.2;;;;;;
64091;SPS30;50348;51.992;8.380;2023-01-29T11:34:54;35.2;;35.5;31.3;;;;;;
64091;SPS30;50348;51.992;8.380;2023-01-29T11:39:34;36.3;;36.5;32.6;;;;;;
64091;SPS30;50348;51.992;8.380;2023-01-29T11:42:17;34.9;;37.5;33.7;;;;;;
64091;SPS30;50348;51.992;8.380;2023-01-29T11:45:24;33.2;;35.7;32.7;;;;;;
64091;SPS30;50348;51.992;8.380;2023-01-29T11:47:29;36.8;;34.9;30.4;;;;;;
64091;SPS30;50348;51.992;8.380;2023-01-29T11:50:16;34.7;;38.3;33.9;;;;;;
64091;SPS30;50348;51.992;8.380;2023-01-29T11:55:19;33;;35.8;32.2;;;;;;
64091;SPS30;50348;51.992;8.380;2023-01-29T12:00:49;34.8;;33.9;30.8;;;;;;
64091;SPS30;50348;51.992;8.380;2023-01-29T12:03:47;36.9;;35.8;32.4;;;;;;
64091;SPS30;50348;51.992;8.380;2023-01-29T12:05:59;34.1;;39.5;33.2;;;;;;
64091;SPS30;50348;51.992;8.380;2023-01-29T12:11:27;34.5;;35.8;31.3;;;;;;
64091;SPS30;50348;51.992;8.380;2023-01-29T12:13:37;34.4;;37;31;;;;;;
64091;SPS30;50348;51.992;8.380;2023-01-29T12:16:11;33.8;;36.6;31.1;;;;;;
64091;SPS30;50348;51.992;8.380;2023-01-29T12:19:04;33.4;;35;31.3;;;;;;
64091;SPS30;50348;51.992;8.380;2023-01-29T12:23:21;30.6;;34.6;30.9;;;;;;
64091;SPS30;50348;51.992;8.380;2023-01-29T12:25:54;31.4;;31.6;28.5;;;;;;
64091;SPS30;50348;51.992;8.380;2023-01-29T12:28:45;34.9;;32;29.4;;;;;;
64091;SPS30;50348;51.992;8.380;2023-01-29T12:33:23;33;;36.6;32;;;;;;
64091;SPS30;50348;51.992;8.380;2023-01-29T12:35:52;32.2;;33.9;30.7;;;;;;
64091;SPS30;50348;51.992;8.380;2023-01-29T12:43:14;33.1;;33.9;29.4;;;;;;
64091;SPS30;50348;51.992;8.380;2023-01-29T12:46:01;34.3;;35.7;30.9;;;;;;
64091;SPS30;50348;51.992;8.380;2023-01-29T12:48:06;33.3;;35.1;31.7;;;;;;
64091;SPS30;50348;51.992;8.380;2023-01-29T12:50:32;32.7;;34.3;30.3;;;;;;
64091;SPS30;50348;51.992;8.380;2023-01-29T12:55:21;35.2;;37.1;29.9;;;;;;
64091;SPS30;50348;51.992;8.380;2023-01-29T12:57:45;33.5;;34.7;32.1;;;;;;
64091;SPS30;50348;51.992;8.380;2023-01-29T13:00:30;35.1;;36.9;31;;;;;;
64091;SPS30;50348;51.992;8.380;2023-01-29T13:04:53;30.9;;32.3;32;;;;;;
64091;SPS30;50348;51.992;8.380;2023-01-29T13:07:35;33.2;;35.1;28.4;;;;;;
64091;SPS30;50348;51.992;8.380;2023-01-29T13:10:40;33.6;;34.7;30.2;;;;;;
64091;SPS30;50348;51.992;8.380;2023-01-29T13:12:58;33;;34.3;31.1;;;;;;
64091;SPS30;50348;51.992;8.380;2023-01-29T13:18:40;33.3;;35.3;30.4;;;;;;
64091;SPS30;50348;51.992;8.380;2023-01-29T13:20:58;34.5;;36.4;30.2;;;;;;
64091;SPS30;50348;51.992;8.380;2023-01-29T13:23:38;35.2;;36.6;31.4;;;;;;
64091;SPS30;50348;51.992;8.380;2023-01-29T13:26:37;33.1;;34.8;32.5;;;;;;
64091;SPS30;50348;51.992;8.380;2023-01-29T13:28:53;31.7;;32.7;30.2;;;;;;
64091;SPS30;50348;51.992;8.380;2023-01-29T13:34:29;33.1;;34.2;29.5;;;;;;
64091;SPS30;50348;51.992;8.380;2023-01-29T13:36:44;34;;34.9;30.7;;;;;;
64091;SPS30;50348;51.992;8.380;2023-01-29T13:42:15;31.6;;35.9;30.9;;;;;;
64091;SPS30;50348;51.992;8.380;2023-01-29T13:44:28;33.7;;33.2;28.9;;;;;;
64091;SPS30;50348;51.992;8.380;2023-01-29T13:49:56;31.8;;35.6;30.6;;;;;;
64091;SPS30;50348;51.992;8.380;2023-01-29T13:52:15;32.8;;32.7;29.5;;;;;;
64091;SPS30;50348;51.992;8.380;2023-01-29T13:54:38;32.6;;35;29.6;;;;;;
64091;SPS30;50348;51.992;8.380;2023-01-29T13:57:32;33.5;;33.8;30.2;;;;;;
64091;SPS30;50348;51.992;8.380;2023-01-29T14:02:18;34.9;;35;30.7;;;;;;
64091;SPS30;50348;51.992;8.380;2023-01-29T14:06:06;35;;37.3;31.4;;;;;;
64091;SPS30;50348;51.992;8.380;2023-01-29T14:07:37;32.1;;33.1;31.5;;;;;;
64091;SPS30;50348;51.992;8.380;2023-01-29T14:12:30;32;;33.6;29.9;;;;;;
64091;SPS30;50348;51.992;8.380;2023-01-29T14:15:04;33.4;;34.6;29.4;;;;;;
64091;SPS30;50348;51.992;8.380;2023-01-29T14:16:58;31.7;;33.3;30.9;;;;;;
64091;SPS30;50348;51.992;8.380;2023-01-29T14:19:45;33.1;;34.1;29.1;;;;;;
64091;SPS30;50348;51.992;8.380;2023-01-29T14:26:40;33.8;;34.5;30.4;;;;;;
64091;SPS30;50348;51.992;8.380;2023-01-29T14:29:22;33.3;;35.3;31;;;;;;
64091;SPS30;50348;51.992;8.380;2023-01-29T14:33:46;34.9;;35;30.4;;;;;;
64091;SPS30;50348;51.992;8.380;2023-01-29T14:36:09;33.4;;36.1;32.3;;;;;;
64091;SPS30;50348;51.992;8.380;2023-01-29T14:38:52;34.4;;35.2;30.5;;;;;;
64091;SPS30;50348;51.992;8.380;2023-01-29T14:41:57;32.6;;36;31.6;;;;;;
64091;SPS30;50348;51.992;8.380;2023-01-29T14:46:59;32;;33.9;30.1;;;;;;
64091;SPS30;50348;51.992;8.380;2023-01-29T14:50:02;34;;32.5;30.2;;;;;;
64091;SPS30;50348;51.992;8.380;2023-01-29T14:52:22;32.6;;35.5;31.3;;;;;;
64091;SPS30;50348;51.992;8.380;2023-01-29T14:55:02;33.1;;33.6;30.3;;;;;;
64091;SPS30;50348;51.992;8.380;2023-01-29T14:58:01;32;;34.6;30.4;;;;;;
64091;SPS30;50348;51.992;8.380;2023-01-29T15:02:56;32.2;;33.2;29.6;;;;;;
64091;SPS30;50348;51.992;8.380;2023-01-29T15:05:55;32.8;;33.3;29.8;;;;;;
64091;SPS30;50348;51.992;8.380;2023-01-29T15:08:12;31.7;;32.9;31;;;;;;
64091;SPS30;50348;51.992;8.380;2023-01-29T15:10:47;33.7;;34.7;29.3;;;;;;
64091;SPS30;50348;51.992;8.380;2023-01-29T15:18:33;32.6;;33.4;30.9;;;;;;
64091;SPS30;50348;51.992;8.380;2023-01-29T15:21:27;31.6;;32.2;30.5;;;;;;
64091;SPS30;50348;51.992;8.380;2023-01-29T15:23:38;34.3;;34.9;29.7;;;;;;
64091;SPS30;50348;51.992;8.380;2023-01-29T15:26:12;34.5;;35.8;32.3;;;;;;
64091;SPS30;50348;51.992;8.380;2023-01-29T15:31:15;32.3;;33.5;31.8;;;;;;
64091;SPS30;50348;51.992;8.380;2023-01-29T15:33:45;34.6;;35.3;29.9;;;;;;
64091;SPS30;50348;51.992;8.380;2023-01-29T15:36:37;33.3;;34;32.6;;;;;;
64091;SPS30;50348;51.992;8.380;2023-01-29T15:41:15;31.8;;32.4;31.2;;;;;;
64091;SPS30;50348;51.992;8.380;2023-01-29T15:44:07;32.5;;33.6;29.8;;;;;;
64091;SPS30;50348;51.992;8.380;2023-01-29T15:46:11;33;;33.8;30.1;;;;;;
64091;SPS30;50348;51.992;8.380;2023-01-29T15:48:37;32.8;;34;30.9;;;;;;
64091;SPS30;50348;51.992;8.380;2023-01-29T15:53:32;35.2;;36.3;30.3;;;;;;
64091;SPS30;50348;51.992;8.380;2023-01-29T15:55:55;33;;34;32.7;;;;;;
64091;SPS30;50348;51.992;8.380;2023-01-29T15:58:41;30.4;;31;30.7;;;;;;
64091;SPS30;50348;51.992;8.380;2023-01-29T16:03:12;30;;30.8;28.6;;;;;;
64091;SPS30;50348;51.992;8.380;2023-01-29T16:05:51;30.6;;32.1;28;;;;;;
64091;SPS30;50348;51.992;8.380;2023-01-29T16:08:37;30.3;;30.9;28.1;;;;;;
64091;SPS30;50348;51.992;8.380;2023-01-29T16:10:39;31.5;;32.2;28.5;;;;;;
64091;SPS30;50348;51.992;8.380;2023-01-29T16:15:52;32.4;;32.9;29.4;;;;;;
64091;SPS30;50348;51.992;8.380;2023-01-29T16:18:50;30.5;;30.9;30.5;;;;;;
64091;SPS30;50348;51.992;8.380;2023-01-29T16:21:13;29.4;;29.7;28.8;;;;;;
64091;SPS30;50348;51.992;8.380;2023-01-29T16:23:53;27.4;;27.6;27.7;;;;;;
64091;SPS30;50348;51.992;8.380;2023-01-29T16:26:56;30.8;;31.3;26.1;;;;;;
64091;SPS30;50348;51.992;8.380;2023-01-29T16:31:55;28.8;;29.6;29;;;;;;
64091;SPS30;50348;51.992;8.380;2023-01-29T16:34:56;29.7;;30.2;26.9;;;;;;
64091;SPS30;50348;51.992;8.380;2023-01-29T16:37:33;31;;31.8;28;;;;;;
64091;SPS30;50348;51.992;8.380;2023-01-29T16:40:33;29.3;;30;29;;;;;;
64091;SPS30;50348;51.992;8.380;2023-01-29T16:42:48;30.2;;31.7;27.4;;;;;;
64091;SPS30;50348;51.992;8.380;2023-01-29T16:48:24;30.8;;31.6;27.5;;;;;;
64091;SPS30;50348;51.992;8.380;2023-01-29T16:50:36;30.1;;30.4;28.7;;;;;;
64091;SPS30;50348;51.992;8.380;2023-01-29T16:53:10;30;;30.7;28.4;;;;;;
64091;SPS30;50348;51.992;8.380;2023-01-29T16:56:06;29;;30.1;28.1;;;;;;
64091;SPS30;50348;51.992;8.380;2023-01-29T16:58:18;28.8;;29;26.9;;;;;;
64091;SPS30;50348;51.992;8.380;2023-01-29T17:03:44;28.5;;28.9;27.3;;;;;;
64091;SPS30;50348;51.992;8.380;2023-01-29T17:05:54;30.2;;30.4;26.9;;;;;;
64091;SPS30;50348;51.992;8.380;2023-01-29T17:08:25;29.1;;29.8;28.6;;;;;;
64091;SPS30;50348;51.992;8.380;2023-01-29T17:11:22;30;;30.4;27.3;;;;;;
64091;SPS30;50348;51.992;8.380;2023-01-29T17:15:57;28;;28.3;28.3;;;;;;
64091;SPS30;50348;51.992;8.380;2023-01-29T17:18:23;29.8;;30.2;26.4;;;;;;
64091;SPS30;50348;51.992;8.380;2023-01-29T17:21:13;28.2;;28.5;28.2;;;;;;
64091;SPS30;50348;51.992;8.380;2023-01-29T17:25:47;30.4;;31.1;26.7;;;;;;
64091;SPS30;50348;51.992;8.380;2023-01-29T17:28:35;28;;28.6;28.4;;;;;;
64091;SPS30;50348;51.992;8.380;2023-01-29T17:35:52;29.8;;28.2;26.5;;;;;;
64091;SPS30;50348;51.992;8.380;2023-01-29T17:37:54;29.3;;30.2;28.1;;;;;;
64091;SPS30;50348;51.992;8.380;2023-01-29T17:40:23;27.6;;29.6;27.6;;;;;;
64091;SPS30;50348;51.992;8.380;2023-01-29T17:43:02;28.9;;28.5;25.5;;;;;;
64091;SPS30;50348;51.992;8.380;2023-01-29T17:47:25;30.2;;29.4;27.2;;;;;;
64091;SPS30;50348;51.992;8.380;2023-01-29T17:50:12;33.5;;30.7;28.4;;;;;;
64091;SPS30;50348;51.992;8.380;2023-01-29T17:53:11;28.1;;34.1;31.5;;;;;;
64091;SPS30;50348;51.992;8.380;2023-01-29T17:55:31;31.6;;28.6;26.4;;;;;;
64091;SPS30;50348;51.992;8.380;2023-01-29T18:01:13;29.2;;32.4;29.5;;;;;;
64091;SPS30;50348;51.992;8.380;2023-01-29T18:03:32;27.2;;29.9;27.3;;;;;;
64091;SPS30;50348;51.992;8.380;2023-01-29T18:06:12;31;;27.7;25.6;;;;;;
64091;SPS30;50348;51.992;8.380;2023-01-29T18:09:11;30.1;;31.6;29;;;;;;
64091;SPS30;50348;51.992;8.380;2023-01-29T18:11:27;29.6;;30.6;28.3;;;;;;
64091;SPS30;50348;51.992;8.380;2023-01-29T18:17:02;29.3;;29.9;28;;;;;;
64091;SPS30;50348;51.992;8.380;2023-01-29T18:20:00;31.4;;29.8;27.6;;;;;;
64091;SPS30;50348;51.992;8.380;2023-01-29T18:22:14;29.6;;31.8;29.7;;;;;;
64091;SPS30;50348;51.992;8.380;2023-01-29T18:24:50;28.6;;30.1;27.8;;;;;;
64091;SPS30;50348;51.992;8.380;2023-01-29T18:27:46;29.6;;29.2;26.8;;;;;;
64091;SPS30;50348;51.992;8.380;2023-01-29T18:32:33;28.1;;30.2;27.8;;;;;;
64091;SPS30;50348;51.992;8.380;2023-01-29T18:37:38;31.3;;28.1;26.7;;;;;;
64091;SPS30;50348;51.992;8.380;2023-01-29T18:40:10;28.4;;32;29.3;;;;;;
64091;SPS30;50348;51.992;8.380;2023-01-29T18:45:12;29.8;;29;26.7;;;;;;
64091;SPS30;50348;51.992;8.380;2023-01-29T18:47:41;28.8;;30;28.2;;;;;;
64091;SPS30;50348;51.992;8.380;2023-01-29T18:50:32;30;;29.4;27.1;;;;;;